Time;durP1;ratioP1;P1;durP2;ratioP2;P2;SDS_P1;SDS_P2;PMS_P1;PMS_P2;Temp;Humidity;BMP_temperature;BMP_pressure;BME280_temperature;BME280_humidity;BME280_pressure;Samples;Min_cycle;Max_cycle;Signal;HPM_P1;HPM_P2
2023/07/31 00:02:04;;;;;;;5.70;3.80;;;16.70;99.90;;;;;;5061851;28;20704;-71
2023/07/31 00:04:29;;;;;;;6.17;3.67;;;16.60;99.90;;;;;;5057061;28;20209;-71
2023/07/31 00:06:55;;;;;;;5.07;4.07;;;16.70;99.90;;;;;;5065152;28;20463;-71
2023/07/31 00:09:21;;;;;;;5.63;4.20;;;16.60;99.90;;;;;;5067756;28;20192;-71
2023/07/31 00:11:46;;;;;;;5.10;3.63;;;16.70;99.90;;;;;;5060141;28;20653;-71
2023/07/31 00:14:12;;;;;;;3.77;3.47;;;16.70;99.90;;;;;;5060654;28;20209;-71
2023/07/31 00:16:38;;;;;;;7.57;3.80;;;16.70;99.90;;;;;;5066255;28;20188;-71
2023/07/31 00:19:03;;;;;;;5.87;4.30;;;16.70;99.90;;;;;;5065089;28;20243;-71
2023/07/31 00:21:29;;;;;;;5.93;3.60;;;16.70;99.90;;;;;;5067287;28;20181;-71
2023/07/31 00:23:54;;;;;;;8.03;4.00;;;16.70;99.90;;;;;;5066933;28;20185;-71
2023/07/31 00:26:20;;;;;;;9.30;3.77;;;16.70;99.90;;;;;;5067006;28;20280;-71
2023/07/31 00:28:46;;;;;;;7.03;3.60;;;16.70;99.90;;;;;;5051708;28;20210;-71
2023/07/31 00:31:11;;;;;;;6.50;3.63;;;16.70;99.90;;;;;;5067515;28;20177;-71
2023/07/31 00:33:38;;;;;;;5.63;3.17;;;16.70;99.90;;;;;;5067223;28;20243;-71
2023/07/31 00:36:03;;;;;;;4.60;3.83;;;16.60;99.90;;;;;;5067180;28;20181;-71
2023/07/31 00:38:29;;;;;;;5.13;3.73;;;16.60;99.90;;;;;;5067386;28;20438;-71
2023/07/31 00:40:55;;;;;;;6.30;4.03;;;16.60;99.90;;;;;;5067893;28;20536;-71
2023/07/31 00:43:20;;;;;;;5.40;3.50;;;16.60;99.90;;;;;;5067509;28;20188;-71
2023/07/31 00:45:46;;;;;;;4.23;3.50;;;16.60;99.90;;;;;;5066745;28;20207;-70
2023/07/31 00:48:12;;;;;;;6.17;4.33;;;16.60;99.90;;;;;;5067616;28;20219;-71
2023/07/31 00:50:38;;;;;;;8.20;4.87;;;16.60;99.90;;;;;;5067364;28;20180;-71
2023/07/31 00:53:04;;;;;;;8.70;4.33;;;16.60;99.90;;;;;;5067789;28;20539;-71
2023/07/31 00:55:30;;;;;;;7.40;4.40;;;16.60;99.90;;;;;;5066684;28;20446;-71
2023/07/31 00:57:56;;;;;;;8.83;4.20;;;16.60;99.90;;;;;;5067824;28;20435;-71
2023/07/31 01:00:22;;;;;;;7.17;4.57;;;16.50;99.90;;;;;;5066166;28;20422;-71
2023/07/31 01:02:50;;;;;;;9.10;5.10;;;16.60;99.90;;;;;;5067374;28;20856;-71
2023/07/31 01:05:15;;;;;;;8.10;3.50;;;16.70;99.90;;;;;;5067045;28;20447;-71
2023/07/31 01:07:51;;;;;;;6.57;3.63;;;16.70;99.90;;;;;;5066456;28;20462;-71
2023/07/31 01:10:28;;;;;;;9.07;4.50;;;16.70;99.90;;;;;;5067721;28;20188;-71
2023/07/31 01:12:56;;;;;;;7.77;4.50;;;16.50;99.90;;;;;;5067762;28;21015;-71
2023/07/31 01:15:22;;;;;;;10.80;4.60;;;16.50;99.90;;;;;;5066817;28;20403;-71
2023/07/31 01:17:47;;;;;;;7.47;4.57;;;16.50;99.90;;;;;;5067484;28;20437;-71
2023/07/31 01:20:22;;;;;;;12.90;5.07;;;16.50;99.90;;;;;;5067886;28;20175;-72
2023/07/31 01:23:09;;;;;;;11.63;4.67;;;16.60;99.90;;;;;;5068016;28;20555;-71
2023/07/31 01:26:00;;;;;;;8.03;4.10;;;16.60;99.90;;;;;;5066788;28;20425;-71
2023/07/31 01:28:50;;;;;;;9.60;4.00;;;16.70;99.90;;;;;;5067203;28;20462;-71
2023/07/31 01:31:22;;;;;;;9.10;4.00;;;16.70;99.90;;;;;;5057044;28;20446;-71
2023/07/31 01:33:50;;;;;;;8.67;4.40;;;16.60;99.90;;;;;;5084778;28;20467;-71
2023/07/31 01:36:16;;;;;;;7.97;4.43;;;16.60;99.90;;;;;;5067966;28;20415;-71
2023/07/31 01:38:41;;;;;;;9.87;4.30;;;16.60;99.90;;;;;;5070570;28;20430;-71
2023/07/31 01:41:07;;;;;;;7.73;4.53;;;16.60;99.90;;;;;;5071613;28;20411;-72
2023/07/31 01:43:33;;;;;;;8.20;4.20;;;16.70;99.90;;;;;;5070368;28;20185;-71
2023/07/31 01:45:58;;;;;;;8.53;3.87;;;16.60;99.90;;;;;;5070386;28;20185;-72
2023/07/31 01:48:24;;;;;;;6.40;3.87;;;16.60;99.90;;;;;;5070582;28;20201;-72
2023/07/31 01:50:50;;;;;;;8.63;3.80;;;16.60;99.90;;;;;;5070689;28;20212;-72
2023/07/31 01:53:15;;;;;;;6.67;4.03;;;16.60;99.90;;;;;;5070660;28;20209;-72
2023/07/31 01:55:41;;;;;;;6.90;3.47;;;16.60;99.90;;;;;;5069322;28;20283;-71
2023/07/31 01:58:07;;;;;;;5.57;3.43;;;16.60;99.90;;;;;;5069613;28;20200;-72
2023/07/31 02:00:32;;;;;;;8.30;4.70;;;16.70;99.90;;;;;;5069344;28;20921;-72
2023/07/31 02:02:59;;;;;;;7.20;3.90;;;16.70;99.90;;;;;;5070237;28;20280;-72
2023/07/31 02:05:25;;;;;;;10.57;4.20;;;16.60;99.90;;;;;;5069680;28;20183;-72
2023/07/31 02:07:51;;;;;;;8.23;4.30;;;16.60;99.90;;;;;;5070189;28;20439;-72
2023/07/31 02:10:16;;;;;;;7.50;4.30;;;16.60;99.90;;;;;;5070551;28;20595;-72
2023/07/31 02:12:42;;;;;;;7.17;3.97;;;16.60;99.90;;;;;;5070386;28;20195;-72
2023/07/31 02:15:08;;;;;;;7.80;4.00;;;16.50;99.90;;;;;;5069321;28;20176;-72
2023/07/31 02:17:34;;;;;;;7.93;4.13;;;16.60;99.90;;;;;;5070256;28;20717;-72
2023/07/31 02:20:00;;;;;;;7.00;3.60;;;16.60;99.90;;;;;;5070105;28;20408;-72
2023/07/31 02:22:26;;;;;;;6.03;4.40;;;16.50;99.90;;;;;;5070353;28;20173;-72
2023/07/31 02:24:51;;;;;;;6.43;3.90;;;16.40;99.90;;;;;;5069185;28;20415;-71
2023/07/31 02:27:17;;;;;;;7.43;3.60;;;16.50;99.90;;;;;;5070034;28;20197;-72
2023/07/31 02:29:43;;;;;;;7.47;4.10;;;16.50;99.90;;;;;;5069839;28;20253;-72
2023/07/31 02:32:08;;;;;;;7.90;3.60;;;16.50;99.90;;;;;;5082254;28;20213;-72
2023/07/31 02:34:34;;;;;;;6.50;4.30;;;16.40;99.90;;;;;;5089408;28;20580;-71
2023/07/31 02:37:00;;;;;;;10.47;3.83;;;16.50;99.90;;;;;;5068675;28;20209;-72
2023/07/31 02:39:25;;;;;;;6.77;4.00;;;16.50;99.90;;;;;;5069453;28;20227;-72
2023/07/31 02:41:51;;;;;;;8.50;4.23;;;16.40;99.90;;;;;;5069918;28;20173;-72
2023/07/31 02:44:16;;;;;;;5.83;3.57;;;16.40;99.90;;;;;;5068952;28;20180;-71
2023/07/31 02:46:42;;;;;;;10.60;4.40;;;16.40;99.90;;;;;;5069413;28;20216;-72
2023/07/31 02:49:08;;;;;;;6.20;4.50;;;16.40;99.90;;;;;;5069335;28;20553;-72
2023/07/31 02:51:33;;;;;;;9.27;4.33;;;16.50;99.90;;;;;;5069476;28;20181;-71
2023/07/31 02:53:59;;;;;;;7.03;4.30;;;16.50;99.90;;;;;;5068944;28;20696;-72
2023/07/31 02:56:25;;;;;;;12.30;4.90;;;16.50;99.90;;;;;;5069222;28;20176;-72
2023/07/31 02:58:50;;;;;;;10.10;4.20;;;16.50;99.90;;;;;;5066858;28;20945;-72
2023/07/31 03:01:16;;;;;;;7.47;4.00;;;16.50;99.90;;;;;;5069857;28;20204;-72
2023/07/31 03:03:42;;;;;;;11.43;4.37;;;16.50;99.90;;;;;;5066966;28;20197;-71
2023/07/31 03:06:08;;;;;;;9.53;4.10;;;16.40;99.90;;;;;;5069310;28;20207;-71
2023/07/31 03:08:33;;;;;;;8.00;4.97;;;16.50;99.90;;;;;;5068929;28;20428;-71
2023/07/31 03:10:59;;;;;;;5.20;3.90;;;16.40;99.90;;;;;;5069479;28;20635;-72
2023/07/31 03:13:24;;;;;;;9.07;3.90;;;16.50;99.90;;;;;;5068009;28;20201;-72
2023/07/31 03:15:50;;;;;;;7.43;4.37;;;16.50;99.90;;;;;;5068172;28;20218;-72
2023/07/31 03:18:16;;;;;;;9.10;4.37;;;16.50;99.90;;;;;;5069205;28;20189;-72
2023/07/31 03:20:43;;;;;;;8.73;4.40;;;16.50;99.90;;;;;;5068733;28;20204;-72
2023/07/31 03:23:09;;;;;;;8.03;3.60;;;16.50;99.90;;;;;;5069173;28;20177;-72
2023/07/31 03:25:35;;;;;;;8.83;4.37;;;16.60;99.90;;;;;;5067840;28;20915;-72
2023/07/31 03:28:00;;;;;;;5.60;3.77;;;16.60;99.90;;;;;;5068792;28;20193;-72
2023/07/31 03:30:26;;;;;;;8.33;4.53;;;16.70;99.90;;;;;;5067437;28;20553;-72
2023/07/31 03:32:52;;;;;;;7.23;4.13;;;16.60;99.90;;;;;;5062938;28;20281;-72
2023/07/31 03:35:18;;;;;;;11.33;3.87;;;16.60;99.90;;;;;;5065528;28;20416;-72
2023/07/31 03:37:43;;;;;;;6.37;3.90;;;16.60;99.90;;;;;;5068839;28;20229;-72
2023/07/31 03:40:10;;;;;;;7.63;3.70;;;16.60;99.90;;;;;;5069065;28;20177;-72
2023/07/31 03:42:35;;;;;;;11.07;4.10;;;16.60;99.90;;;;;;5066363;28;20211;-72
2023/07/31 03:45:01;;;;;;;9.37;4.53;;;16.60;99.90;;;;;;5067312;28;20440;-72
2023/07/31 03:47:27;;;;;;;9.73;4.93;;;16.60;99.90;;;;;;5068632;28;20205;-72
2023/07/31 03:49:53;;;;;;;10.80;4.87;;;16.60;99.90;;;;;;5068017;28;20169;-72
2023/07/31 03:52:18;;;;;;;9.47;3.47;;;16.60;99.90;;;;;;5068570;28;20523;-72
2023/07/31 03:54:44;;;;;;;6.83;4.30;;;16.60;99.90;;;;;;5067202;28;20212;-72
2023/07/31 03:57:11;;;;;;;9.37;4.80;;;16.70;99.90;;;;;;5068259;28;20715;-72
2023/07/31 03:59:38;;;;;;;8.93;4.47;;;16.60;99.90;;;;;;5065747;28;20169;-72
2023/07/31 04:02:04;;;;;;;9.53;4.67;;;16.70;99.90;;;;;;5068066;28;20864;-72
2023/07/31 04:04:30;;;;;;;6.60;4.07;;;16.60;99.90;;;;;;5067551;28;20438;-72
2023/07/31 04:06:56;;;;;;;11.40;4.10;;;16.60;99.90;;;;;;5067921;28;20427;-72
2023/07/31 04:09:21;;;;;;;7.23;4.90;;;16.70;99.90;;;;;;5066915;28;20177;-72
2023/07/31 04:11:47;;;;;;;11.03;5.00;;;16.70;99.90;;;;;;5068062;28;20177;-71
2023/07/31 04:14:13;;;;;;;7.90;4.30;;;16.60;99.90;;;;;;5067061;28;20200;-72
2023/07/31 04:16:39;;;;;;;8.37;4.47;;;16.60;99.90;;;;;;5067702;28;20174;-72
2023/07/31 04:19:04;;;;;;;7.40;4.37;;;16.70;99.90;;;;;;5068118;28;20579;-72
2023/07/31 04:21:30;;;;;;;11.10;5.63;;;16.70;99.90;;;;;;5065110;28;20662;-72
2023/07/31 04:23:56;;;;;;;9.07;4.60;;;16.70;99.90;;;;;;5067218;28;20201;-72
2023/07/31 04:26:22;;;;;;;8.27;4.30;;;16.80;99.90;;;;;;5067531;28;20705;-72
2023/07/31 04:28:47;;;;;;;10.07;4.40;;;16.70;99.90;;;;;;5065375;28;20200;-72
2023/07/31 04:31:13;;;;;;;7.37;3.97;;;16.70;99.90;;;;;;5067657;28;20819;-72
2023/07/31 04:33:39;;;;;;;6.37;4.23;;;16.70;99.90;;;;;;5067119;28;20564;-72
2023/07/31 04:36:05;;;;;;;7.77;4.60;;;16.80;99.90;;;;;;5067286;28;20181;-72
2023/07/31 04:38:31;;;;;;;8.07;4.90;;;16.80;99.90;;;;;;5067414;28;20193;-72
2023/07/31 04:40:56;;;;;;;7.47;4.90;;;16.80;99.90;;;;;;5065239;28;20757;-72
2023/07/31 04:43:22;;;;;;;8.77;4.40;;;16.80;99.90;;;;;;5067043;28;20183;-72
2023/07/31 04:45:48;;;;;;;7.87;4.20;;;16.80;99.90;;;;;;5063358;28;20188;-73
2023/07/31 04:48:14;;;;;;;8.10;4.00;;;16.90;99.90;;;;;;5065348;28;20201;-73
2023/07/31 04:50:40;;;;;;;7.50;4.37;;;16.90;99.90;;;;;;5064609;28;20858;-73
2023/07/31 04:53:06;;;;;;;6.97;4.30;;;16.90;99.90;;;;;;5066290;28;20459;-73
2023/07/31 04:55:31;;;;;;;6.33;3.83;;;17.00;99.90;;;;;;5061687;28;20549;-73
2023/07/31 04:58:01;;;;;;;8.00;4.03;;;17.00;99.90;;;;;;5067139;28;20196;-73
2023/07/31 05:00:26;;;;;;;6.67;4.13;;;17.00;99.90;;;;;;5056611;28;20188;-73
2023/07/31 05:02:52;;;;;;;6.97;4.87;;;17.10;99.90;;;;;;5063822;28;20431;-73
2023/07/31 05:05:18;;;;;;;7.33;4.30;;;17.00;99.90;;;;;;5066719;28;20173;-73
2023/07/31 05:07:43;;;;;;;6.40;3.83;;;17.00;99.90;;;;;;5067526;28;20698;-74
2023/07/31 05:10:09;;;;;;;7.80;4.27;;;17.10;99.90;;;;;;5067456;28;20177;-72
2023/07/31 05:12:35;;;;;;;8.33;4.33;;;17.10;99.90;;;;;;5070414;28;20204;-72
2023/07/31 05:15:00;;;;;;;7.97;4.50;;;17.10;99.90;;;;;;5070535;28;20236;-72
2023/07/31 05:17:26;;;;;;;7.30;4.23;;;17.10;99.90;;;;;;5068993;28;20700;-72
2023/07/31 05:19:51;;;;;;;6.43;4.63;;;17.10;99.90;;;;;;5071072;28;20673;-72
2023/07/31 05:22:17;;;;;;;5.77;4.00;;;17.10;99.90;;;;;;5070845;28;20261;-72
2023/07/31 05:24:43;;;;;;;7.20;4.40;;;17.10;99.90;;;;;;5070998;28;20184;-72
2023/07/31 05:27:09;;;;;;;12.57;4.93;;;17.10;99.90;;;;;;5070960;28;20201;-72
2023/07/31 05:29:35;;;;;;;8.27;4.20;;;17.10;99.90;;;;;;5071420;28;20177;-72
2023/07/31 05:32:01;;;;;;;10.57;5.00;;;17.10;99.90;;;;;;5073116;28;20427;-72
2023/07/31 05:34:27;;;;;;;7.47;4.47;;;17.10;99.90;;;;;;5070530;28;20455;-72
2023/07/31 05:36:52;;;;;;;6.47;4.50;;;17.10;99.90;;;;;;5071210;28;20423;-72
2023/07/31 05:39:19;;;;;;;9.00;4.77;;;17.10;99.90;;;;;;5070868;28;20173;-72
2023/07/31 05:41:45;;;;;;;8.30;5.23;;;17.20;99.90;;;;;;5071285;28;20640;-72
2023/07/31 05:44:11;;;;;;;15.43;5.03;;;17.20;99.90;;;;;;5067791;28;20498;-72
2023/07/31 05:46:36;;;;;;;7.70;4.30;;;17.20;99.90;;;;;;5070892;28;20503;-72
2023/07/31 05:49:02;;;;;;;8.80;4.93;;;17.20;99.90;;;;;;5069735;28;20642;-72
2023/07/31 05:51:28;;;;;;;5.87;4.60;;;17.20;99.90;;;;;;5070832;28;20689;-72
2023/07/31 05:53:54;;;;;;;9.10;5.00;;;17.20;99.90;;;;;;5070327;28;20216;-72
2023/07/31 05:56:19;;;;;;;11.07;5.70;;;17.20;99.90;;;;;;5068962;28;20185;-72
2023/07/31 05:58:45;;;;;;;7.87;4.97;;;17.30;99.90;;;;;;5067497;28;20196;-72
2023/07/31 06:01:11;;;;;;;10.10;4.80;;;17.20;99.90;;;;;;5068832;28;20179;-72
2023/07/31 06:03:36;;;;;;;6.50;4.60;;;17.20;99.90;;;;;;5062737;28;20193;-73
2023/07/31 06:06:02;;;;;;;7.03;4.47;;;17.20;99.90;;;;;;5064034;28;20177;-72
2023/07/31 06:08:28;;;;;;;9.23;5.20;;;17.10;99.90;;;;;;5068646;28;20232;-72
2023/07/31 06:10:53;;;;;;;5.50;4.47;;;17.10;99.90;;;;;;5069038;28;20225;-73
2023/07/31 06:13:19;;;;;;;6.97;5.13;;;17.10;99.90;;;;;;5067643;28;21228;-72
2023/07/31 06:15:45;;;;;;;5.80;4.63;;;17.10;99.90;;;;;;5060143;28;20177;-72
2023/07/31 06:18:10;;;;;;;7.30;4.90;;;17.10;99.90;;;;;;5067388;28;20266;-72
2023/07/31 06:20:36;;;;;;;6.87;4.93;;;17.10;99.90;;;;;;5067294;28;20185;-72
2023/07/31 06:23:03;;;;;;;6.40;4.53;;;17.20;99.90;;;;;;5067043;28;20555;-72
2023/07/31 06:25:29;;;;;;;7.30;4.53;;;17.20;99.90;;;;;;5066654;28;20181;-72
2023/07/31 06:27:54;;;;;;;8.23;4.67;;;17.30;99.90;;;;;;5066144;28;20431;-72
2023/07/31 06:30:20;;;;;;;10.03;5.57;;;17.30;99.90;;;;;;5067796;28;20231;-72
2023/07/31 06:32:46;;;;;;;5.33;4.50;;;17.30;99.90;;;;;;5085588;28;20653;-72
2023/07/31 06:35:11;;;;;;;9.77;4.90;;;17.30;99.90;;;;;;5088632;28;20172;-72
2023/07/31 06:37:40;;;;;;;6.97;5.00;;;17.30;99.90;;;;;;5089099;28;20242;-72
2023/07/31 06:40:08;;;;;;;8.63;4.90;;;17.30;99.90;;;;;;5089395;28;20579;-72
2023/07/31 06:42:35;;;;;;;8.17;5.30;;;17.40;99.90;;;;;;5079930;28;20416;-72
2023/07/31 06:45:01;;;;;;;8.70;5.23;;;17.40;99.90;;;;;;5067953;28;20821;-72
2023/07/31 06:47:27;;;;;;;10.20;6.10;;;17.40;99.90;;;;;;5068226;28;20912;-72
2023/07/31 06:49:53;;;;;;;7.43;5.13;;;17.40;99.90;;;;;;5068357;28;20410;-72
2023/07/31 06:52:19;;;;;;;6.90;4.47;;;17.40;99.90;;;;;;5068373;28;20177;-72
2023/07/31 06:54:59;;;;;;;5.17;4.60;;;17.40;99.90;;;;;;5067718;28;20204;-72
2023/07/31 06:57:25;;;;;;;7.87;4.67;;;17.30;99.90;;;;;;5066069;28;20459;-72
2023/07/31 06:59:51;;;;;;;6.10;4.80;;;17.30;99.90;;;;;;5061830;28;20928;-72
2023/07/31 07:02:16;;;;;;;7.33;4.27;;;17.30;99.90;;;;;;5068121;28;20173;-72
2023/07/31 07:04:42;;;;;;;7.93;4.80;;;17.30;99.90;;;;;;5030142;28;1090601;-72
2023/07/31 07:07:08;;;;;;;8.43;5.33;;;17.30;99.90;;;;;;5068992;28;20205;-72
2023/07/31 07:09:33;;;;;;;6.23;4.30;;;17.30;99.90;;;;;;5068725;28;20197;-72
2023/07/31 07:11:59;;;;;;;8.07;5.30;;;17.30;99.90;;;;;;5069247;28;20189;-72
2023/07/31 07:14:24;;;;;;;5.03;3.90;;;17.30;99.90;;;;;;5065595;28;20581;-72
2023/07/31 07:16:53;;;;;;;4.93;4.00;;;17.20;99.90;;;;;;5069182;28;20216;-72
2023/07/31 07:19:18;;;;;;;8.90;4.50;;;17.30;99.90;;;;;;5069474;28;20607;-72
2023/07/31 07:21:44;;;;;;;6.63;4.60;;;17.30;99.90;;;;;;5069096;28;20427;-72
2023/07/31 07:24:10;;;;;;;8.40;5.07;;;17.40;99.90;;;;;;5068839;28;20216;-71
2023/07/31 07:26:35;;;;;;;7.23;4.77;;;17.40;99.90;;;;;;5068804;28;20177;-72
2023/07/31 07:29:02;;;;;;;6.47;4.30;;;17.30;99.90;;;;;;5068771;28;20188;-72
2023/07/31 07:31:28;;;;;;;6.27;4.60;;;17.30;99.90;;;;;;5068867;28;20215;-72
2023/07/31 07:33:54;;;;;;;8.80;4.83;;;17.30;99.90;;;;;;5067593;28;20481;-72
2023/07/31 07:36:19;;;;;;;5.43;4.93;;;17.30;99.90;;;;;;5068554;28;20952;-72
2023/07/31 07:38:45;;;;;;;7.57;4.37;;;17.20;99.90;;;;;;5068791;28;20542;-72
2023/07/31 07:41:11;;;;;;;9.60;4.40;;;17.10;99.90;;;;;;5069134;28;20181;-72
2023/07/31 07:43:36;;;;;;;6.30;4.20;;;17.20;99.90;;;;;;5069450;28;20677;-72
2023/07/31 07:46:02;;;;;;;6.77;4.80;;;17.20;99.90;;;;;;5070680;28;20613;-72
2023/07/31 07:48:28;;;;;;;4.47;3.43;;;17.20;99.90;;;;;;5070588;28;20209;-72
2023/07/31 07:50:53;;;;;;;6.30;4.40;;;17.20;99.90;;;;;;5069782;28;20181;-72
2023/07/31 07:53:19;;;;;;;5.40;4.30;;;17.20;99.90;;;;;;5068508;28;20486;-72
2023/07/31 07:55:45;;;;;;;5.23;4.10;;;17.30;99.90;;;;;;5067903;28;20181;-72
2023/07/31 07:58:10;;;;;;;6.73;3.80;;;17.20;99.90;;;;;;5067725;28;20660;-72
2023/07/31 08:00:36;;;;;;;5.40;4.90;;;17.20;99.90;;;;;;5068307;28;20264;-72
2023/07/31 08:03:02;;;;;;;6.17;3.90;;;17.20;99.90;;;;;;5068377;28;20188;-72
2023/07/31 08:05:27;;;;;;;5.53;4.10;;;17.30;99.90;;;;;;5067544;28;20188;-71
2023/07/31 08:07:53;;;;;;;5.50;4.33;;;17.30;99.90;;;;;;5068455;28;20458;-72
2023/07/31 08:10:19;;;;;;;4.77;4.30;;;17.20;99.90;;;;;;5068342;28;20192;-72
2023/07/31 08:12:44;;;;;;;6.60;4.60;;;17.20;99.90;;;;;;5068057;28;20553;-72
2023/07/31 08:15:10;;;;;;;6.40;4.20;;;17.10;99.90;;;;;;5067632;28;20268;-72
2023/07/31 08:17:36;;;;;;;6.67;4.93;;;17.10;99.90;;;;;;5067913;28;20219;-71
2023/07/31 08:20:02;;;;;;;6.20;4.33;;;17.10;99.90;;;;;;5068179;28;20181;-72
2023/07/31 08:22:28;;;;;;;5.53;4.37;;;17.00;99.90;;;;;;5068087;28;20648;-72
2023/07/31 08:24:53;;;;;;;5.40;3.90;;;17.00;99.90;;;;;;5067435;28;20412;-72
2023/07/31 08:27:19;;;;;;;5.13;3.70;;;17.10;99.90;;;;;;5068150;28;20711;-72
2023/07/31 08:29:44;;;;;;;4.93;3.60;;;17.10;99.90;;;;;;5067532;28;20192;-72
2023/07/31 08:32:10;;;;;;;5.63;3.93;;;17.10;99.90;;;;;;5066850;28;20649;-72
2023/07/31 08:34:36;;;;;;;3.30;3.00;;;17.20;99.90;;;;;;5067116;28;20589;-72
2023/07/31 08:37:01;;;;;;;4.97;3.30;;;17.20;99.90;;;;;;5068009;28;20196;-72
2023/07/31 08:39:27;;;;;;;4.00;3.10;;;17.30;99.90;;;;;;5067919;28;20185;-72
2023/07/31 08:41:58;;;;;;;5.70;3.33;;;17.30;99.90;;;;;;5067850;28;20177;-72
2023/07/31 08:44:24;;;;;;;3.30;2.63;;;17.30;99.90;;;;;;5067206;28;20267;-72
2023/07/31 08:46:50;;;;;;;3.10;2.67;;;17.30;99.90;;;;;;5067509;28;20421;-72
2023/07/31 08:49:17;;;;;;;2.60;2.37;;;17.30;99.90;;;;;;5067851;28;20924;-72
2023/07/31 08:51:45;;;;;;;4.07;2.80;;;17.30;99.90;;;;;;5067779;28;20423;-72
2023/07/31 08:54:11;;;;;;;3.70;2.50;;;17.40;99.90;;;;;;5067332;28;20467;-72
2023/07/31 08:56:38;;;;;;;3.43;2.57;;;17.40;99.90;;;;;;5067353;28;20415;-72
2023/07/31 08:59:04;;;;;;;4.57;3.00;;;17.30;99.90;;;;;;5066859;28;20419;-72
2023/07/31 09:01:32;;;;;;;5.23;3.30;;;17.20;99.90;;;;;;5067811;28;20426;-72
2023/07/31 09:04:01;;;;;;;4.00;3.37;;;17.20;99.90;;;;;;5067150;28;20442;-72
2023/07/31 09:06:29;;;;;;;5.07;3.60;;;17.20;99.90;;;;;;5067254;28;20415;-71
2023/07/31 09:08:55;;;;;;;3.20;2.90;;;17.30;99.90;;;;;;5067054;28;20439;-71
2023/07/31 09:11:21;;;;;;;5.23;3.30;;;17.20;99.90;;;;;;5067438;28;20813;-72
2023/07/31 09:13:49;;;;;;;4.00;3.30;;;17.20;99.90;;;;;;5066701;28;20207;-72
2023/07/31 09:16:15;;;;;;;4.57;3.40;;;17.20;99.90;;;;;;5067284;28;20472;-72
2023/07/31 09:18:56;;;;;;;2.90;2.30;;;17.20;99.90;;;;;;5066270;28;20932;-72
2023/07/31 09:21:23;;;;;;;3.40;3.10;;;17.20;99.90;;;;;;5067488;28;20184;-72
2023/07/31 09:23:51;;;;;;;3.77;2.63;;;17.20;99.90;;;;;;5066631;28;20514;-72
2023/07/31 09:26:35;;;;;;;4.27;3.17;;;17.10;99.90;;;;;;5065594;28;20928;-71
2023/07/31 09:29:04;;;;;;;3.93;2.70;;;17.00;99.90;;;;;;5067079;28;20430;-72
2023/07/31 09:31:41;;;;;;;3.33;3.03;;;17.10;99.90;;;;;;5064916;28;20423;-71
2023/07/31 09:34:07;;;;;;;4.10;3.03;;;17.10;99.90;;;;;;5066933;28;21266;-72
2023/07/31 09:36:32;;;;;;;3.80;2.50;;;17.10;99.90;;;;;;5065971;28;20443;-72
2023/07/31 09:39:03;;;;;;;3.37;3.03;;;17.20;99.90;;;;;;5067354;28;20427;-72
2023/07/31 09:41:30;;;;;;;3.47;2.90;;;17.20;99.90;;;;;;5066624;28;20288;-72
2023/07/31 09:43:56;;;;;;;4.33;2.90;;;17.20;99.90;;;;;;5065351;28;20418;-72
2023/07/31 09:46:22;;;;;;;2.83;2.57;;;17.20;99.90;;;;;;5066791;28;20416;-72
2023/07/31 09:48:48;;;;;;;5.27;3.33;;;17.20;99.90;;;;;;5067164;28;20743;-72
2023/07/31 09:51:13;;;;;;;2.63;2.37;;;17.20;99.90;;;;;;5067542;28;20560;-72
2023/07/31 09:53:39;;;;;;;3.47;2.40;;;17.20;99.90;;;;;;5067050;28;20465;-71
2023/07/31 09:56:05;;;;;;;2.90;2.40;;;17.30;99.90;;;;;;5066958;28;20176;-72
2023/07/31 09:58:34;;;;;;;2.93;2.50;;;17.30;99.90;;;;;;5068030;28;20217;-72
2023/07/31 10:01:02;;;;;;;3.27;2.33;;;17.30;99.90;;;;;;5070760;28;20403;-72
2023/07/31 10:03:31;;;;;;;2.30;2.07;;;17.20;99.90;;;;;;5070340;28;20860;-71
2023/07/31 10:05:59;;;;;;;2.50;1.90;;;17.30;99.90;;;;;;5070920;28;20839;-72
2023/07/31 10:08:30;;;;;;;2.93;2.27;;;17.20;99.90;;;;;;5070181;28;20813;-71
2023/07/31 10:10:59;;;;;;;2.67;2.37;;;17.30;99.90;;;;;;5070747;28;20422;-72
2023/07/31 10:13:27;;;;;;;2.90;2.40;;;17.30;99.90;;;;;;5070118;28;20478;-72
2023/07/31 10:15:54;;;;;;;2.90;2.60;;;17.20;99.90;;;;;;5070492;28;20416;-72
2023/07/31 10:18:20;;;;;;;2.67;2.47;;;17.10;99.90;;;;;;5070328;28;20515;-71
2023/07/31 10:20:47;;;;;;;2.43;2.23;;;17.10;99.90;;;;;;5070514;28;20988;-72
2023/07/31 10:23:13;;;;;;;2.30;1.80;;;17.20;99.90;;;;;;5070660;28;20415;-72
2023/07/31 10:25:39;;;;;;;3.40;2.00;;;17.20;99.90;;;;;;5069728;28;20432;-72
2023/07/31 10:28:05;;;;;;;1.80;1.70;;;17.20;99.90;;;;;;5070205;28;20478;-72
2023/07/31 10:30:33;;;;;;;2.37;2.10;;;17.20;99.90;;;;;;5070264;28;20459;-71
2023/07/31 10:33:00;;;;;;;2.20;2.00;;;17.20;99.90;;;;;;5064838;28;20855;-72
2023/07/31 10:35:27;;;;;;;2.40;2.20;;;17.30;99.90;;;;;;5061777;28;20463;-71
2023/07/31 10:37:52;;;;;;;2.20;2.00;;;17.30;99.90;;;;;;5065898;28;20474;-72
2023/07/31 10:40:23;;;;;;;3.20;1.90;;;17.30;99.90;;;;;;5074911;28;20434;-72
2023/07/31 10:42:52;;;;;;;2.70;2.27;;;17.30;99.90;;;;;;5073271;28;20541;-72
2023/07/31 10:45:38;;;;;;;2.87;2.17;;;17.30;99.90;;;;;;5060602;28;20889;-72
2023/07/31 10:48:12;;;;;;;2.07;1.87;;;17.40;99.90;;;;;;5065772;28;20426;-71
2023/07/31 10:50:45;;;;;;;3.60;2.33;;;17.40;99.90;;;;;;5067313;28;20752;-71
2023/07/31 10:53:23;;;;;;;2.13;1.93;;;17.40;99.90;;;;;;5063649;28;20541;-71
2023/07/31 10:55:51;;;;;;;2.57;2.37;;;17.40;99.90;;;;;;5068494;28;20431;-71
2023/07/31 10:58:19;;;;;;;2.63;2.43;;;17.30;99.90;;;;;;5062712;28;20444;-71
2023/07/31 11:00:45;;;;;;;3.40;2.70;;;17.30;99.90;;;;;;5065030;28;20967;-71
2023/07/31 11:03:15;;;;;;;2.63;2.43;;;17.30;99.90;;;;;;5058776;28;20451;-72
2023/07/31 11:05:44;;;;;;;2.83;2.40;;;17.30;99.90;;;;;;5068250;28;20434;-71
2023/07/31 11:08:23;;;;;;;3.60;3.00;;;17.20;99.90;;;;;;5066161;28;20443;-71
2023/07/31 11:11:10;;;;;;;5.57;3.13;;;17.20;99.90;;;;;;5066522;28;20415;-71
2023/07/31 11:13:52;;;;;;;3.87;3.30;;;17.30;99.90;;;;;;5064988;28;20459;-72
2023/07/31 11:16:19;;;;;;;7.97;3.33;;;17.30;99.90;;;;;;5064872;28;20424;-71
2023/07/31 11:18:48;;;;;;;4.40;3.63;;;17.30;99.90;;;;;;5063293;28;21010;-71
2023/07/31 11:21:16;;;;;;;6.50;3.57;;;17.30;99.90;;;;;;5064347;28;20447;-71
2023/07/31 11:23:46;;;;;;;5.00;3.53;;;17.30;99.90;;;;;;5068959;28;20496;-71
2023/07/31 11:26:12;;;;;;;4.53;3.63;;;17.40;99.90;;;;;;5061786;28;20502;-71
2023/07/31 11:28:38;;;;;;;5.60;3.83;;;17.40;99.90;;;;;;5060937;28;20463;-71
2023/07/31 11:31:05;;;;;;;4.30;3.37;;;17.40;99.90;;;;;;5068385;28;20784;-71
2023/07/31 11:33:31;;;;;;;4.30;3.30;;;17.40;99.90;;;;;;5068587;28;20469;-71
2023/07/31 11:35:57;;;;;;;4.60;3.63;;;17.40;99.90;;;;;;5063798;28;20507;-71
2023/07/31 11:38:28;;;;;;;5.03;4.00;;;17.40;99.90;;;;;;5062005;28;20197;-71
2023/07/31 11:40:56;;;;;;;5.67;3.50;;;17.40;99.90;;;;;;5063076;28;20424;-71
2023/07/31 11:43:22;;;;;;;5.23;4.07;;;17.40;99.90;;;;;;5058589;28;20517;-72
2023/07/31 11:45:54;;;;;;;5.07;4.53;;;17.50;99.90;;;;;;5063941;28;21032;-71
2023/07/31 11:48:27;;;;;;;5.23;4.43;;;17.50;99.90;;;;;;5065748;28;20847;-71
2023/07/31 11:50:57;;;;;;;4.93;4.37;;;17.60;99.90;;;;;;5059268;28;20455;-71
2023/07/31 11:53:37;;;;;;;4.60;4.20;;;17.50;99.90;;;;;;5065745;28;20804;-71
2023/07/31 11:56:06;;;;;;;5.17;4.03;;;17.60;99.90;;;;;;5057189;28;20913;-70
2023/07/31 11:58:34;;;;;;;4.37;3.97;;;17.70;99.90;;;;;;5063672;28;20431;-70
2023/07/31 12:01:00;;;;;;;6.63;3.90;;;17.70;99.90;;;;;;5065836;28;21045;-70
2023/07/31 12:03:26;;;;;;;4.07;3.63;;;17.70;99.90;;;;;;5062526;28;20439;-70
2023/07/31 12:05:53;;;;;;;4.20;3.60;;;17.70;99.90;;;;;;5062222;28;20854;-70
2023/07/31 12:08:21;;;;;;;4.70;3.47;;;17.80;99.90;;;;;;5062819;28;20439;-70
2023/07/31 12:10:50;;;;;;;3.43;2.93;;;17.80;99.90;;;;;;5065472;28;20415;-70
2023/07/31 12:13:24;;;;;;;6.70;4.07;;;17.90;99.90;;;;;;5061959;28;21010;-70
2023/07/31 12:15:55;;;;;;;6.90;3.00;;;17.90;99.90;;;;;;5064007;28;20423;-70
2023/07/31 12:18:22;;;;;;;4.10;3.50;;;17.90;99.90;;;;;;5060112;28;20456;-70
2023/07/31 12:20:53;;;;;;;3.50;3.20;;;18.00;99.90;;;;;;5063269;28;20414;-70
2023/07/31 12:23:28;;;;;;;4.13;3.00;;;18.00;99.90;;;;;;5057467;28;20436;-71
2023/07/31 12:26:02;;;;;;;4.43;2.57;;;18.00;99.90;;;;;;5061318;28;20420;-71
2023/07/31 12:28:28;;;;;;;3.10;2.60;;;18.00;99.90;;;;;;5056122;28;20437;-70
2023/07/31 12:31:00;;;;;;;3.60;2.70;;;18.00;99.90;;;;;;5068770;28;20427;-71
2023/07/31 12:33:36;;;;;;;3.40;3.10;;;18.00;99.90;;;;;;5054661;28;20698;-70
2023/07/31 12:36:04;;;;;;;4.40;2.60;;;18.00;99.90;;;;;;5062666;28;20422;-70
2023/07/31 12:38:30;;;;;;;3.17;2.20;;;18.00;99.90;;;;;;5058808;28;20480;-71
2023/07/31 12:40:56;;;;;;;3.40;2.70;;;18.00;99.90;;;;;;5062933;28;20415;-70
2023/07/31 12:43:21;;;;;;;2.63;2.40;;;18.00;99.90;;;;;;5056709;28;20946;-71
2023/07/31 12:45:47;;;;;;;4.50;2.90;;;18.00;99.90;;;;;;5059781;28;20272;-71